createdAt,value
2019-04-11T18:39:33.638Z,11.80
2019-04-11T18:42:01.194Z,4.20
2019-04-11T18:44:27.780Z,2.77
2019-04-11T18:46:54.214Z,2.33
2019-04-11T18:49:21.743Z,2.45
2019-04-11T19:00:15.694Z,2.72
2019-04-11T19:02:42.331Z,2.20
2019-04-11T19:05:10.876Z,1.85
2019-04-11T19:07:37.022Z,1.57
2019-04-11T19:10:04.971Z,2.20
2019-04-11T19:12:32.992Z,2.33
2019-04-11T19:14:59.462Z,1.80
2019-04-11T19:17:25.943Z,2.25
2019-04-11T19:19:52.473Z,2.25
2019-04-11T19:22:19.763Z,2.83
2019-04-11T19:24:47.450Z,3.40
2019-04-11T19:27:16.290Z,4.08
2019-04-11T19:29:42.385Z,3.65
2019-04-11T19:32:08.780Z,3.52
2019-04-11T19:34:35.606Z,3.30
2019-04-11T19:37:03.873Z,3.83
2019-04-11T19:39:32.244Z,7.72
2019-04-11T19:41:58.656Z,6.72
2019-04-11T19:44:28.200Z,4.72
2019-04-11T19:46:54.594Z,4.85
2019-04-11T19:49:21.034Z,4.00
2019-04-11T19:51:50.764Z,3.95
2019-04-11T19:54:17.114Z,3.50
2019-04-11T19:56:51.701Z,3.62
2019-04-11T19:59:18.141Z,3.62
2019-04-11T20:01:44.664Z,3.40
2019-04-11T20:04:11.336Z,4.10
2019-04-11T20:06:37.728Z,3.10
2019-04-11T20:09:05.514Z,3.77
2019-04-11T20:11:33.105Z,3.45
2019-04-11T20:14:00.070Z,3.10
2019-04-11T20:16:28.823Z,3.12
2019-04-11T20:18:57.477Z,3.00
2019-04-11T20:21:23.643Z,3.22
2019-04-11T20:23:50.279Z,2.70
2019-04-11T20:26:20.095Z,4.25
2019-04-11T20:28:48.202Z,3.77
2019-04-11T20:31:14.140Z,4.17
2019-04-11T20:33:40.612Z,4.62
2019-04-11T20:36:08.216Z,4.50
2019-04-11T20:38:35.288Z,4.55
2019-04-11T20:41:02.496Z,4.42
2019-04-11T20:43:28.977Z,4.53
2019-04-11T20:45:57.925Z,5.20
2019-04-11T20:48:25.902Z,4.78
2019-04-11T20:50:52.448Z,4.55
2019-04-11T20:53:18.959Z,4.70
2019-04-11T20:55:45.384Z,3.65
2019-04-11T20:58:11.836Z,3.17
2019-04-11T21:00:49.508Z,3.22
2019-04-11T21:03:06.767Z,3.95
2019-04-11T21:05:34.046Z,4.12
2019-04-11T21:08:03.091Z,3.70
2019-04-11T21:10:28.795Z,3.08
2019-04-11T21:12:55.134Z,3.75
2019-04-11T21:15:21.575Z,3.83
2019-04-11T21:17:48.429Z,4.03
2019-04-11T21:20:14.937Z,3.20
2019-04-11T21:22:41.541Z,3.35
2019-04-11T21:25:08.178Z,3.65
2019-04-11T21:27:34.532Z,3.67
2019-04-11T21:30:01.621Z,3.20
